createdAt,value
2022-10-18T00:01:45.038Z,10.50
2022-10-18T00:04:12.289Z,10.50
2022-10-18T00:06:42.631Z,10.50
2022-10-18T00:09:10.897Z,10.50
2022-10-18T00:11:37.834Z,10.60
2022-10-18T00:14:04.861Z,10.50
2022-10-18T00:16:31.769Z,10.50
2022-10-18T00:18:58.798Z,10.60
2022-10-18T00:21:25.802Z,10.60
2022-10-18T00:23:53.564Z,10.70
2022-10-18T00:26:21.960Z,10.80
2022-10-18T00:28:59.524Z,11.00
2022-10-18T00:31:33.718Z,11.00
2022-10-18T00:34:02.204Z,11.00
2022-10-18T00:36:29.801Z,11.10
2022-10-18T00:38:57.184Z,10.90
2022-10-18T00:41:26.064Z,10.70
2022-10-18T00:43:54.125Z,10.60
2022-10-18T00:46:21.080Z,10.40
2022-10-18T00:48:48.565Z,10.10
2022-10-18T00:51:16.585Z,9.90
2022-10-18T00:53:43.587Z,9.80
2022-10-18T00:56:10.654Z,9.80
2022-10-18T00:58:37.962Z,9.80
2022-10-18T01:01:07.514Z,9.90
2022-10-18T01:03:34.931Z,10.20
2022-10-18T01:06:01.847Z,10.40
2022-10-18T01:08:32.755Z,10.40
2022-10-18T01:11:18.290Z,10.60
2022-10-18T01:13:51.896Z,10.60
2022-10-18T01:16:29.279Z,10.70
2022-10-18T01:19:06.939Z,10.80
2022-10-18T01:21:46.069Z,10.90
2022-10-18T01:24:15.971Z,11.00
2022-10-18T01:27:06.443Z,11.00
2022-10-18T01:29:42.499Z,11.00
2022-10-18T01:32:20.386Z,11.00
2022-10-18T01:34:48.864Z,11.00
2022-10-18T01:37:17.456Z,11.10
2022-10-18T01:39:46.178Z,11.10
2022-10-18T01:42:14.767Z,11.10
2022-10-18T01:44:41.719Z,11.10
2022-10-18T01:47:10.463Z,11.00
2022-10-18T01:49:37.379Z,11.00
2022-10-18T01:52:04.374Z,11.00
2022-10-18T01:54:34.465Z,10.90
2022-10-18T01:57:01.373Z,11.00
2022-10-18T01:59:28.246Z,11.00
2022-10-18T02:02:02.674Z,10.90
2022-10-18T02:04:32.687Z,10.90
2022-10-18T02:07:06.222Z,10.80
2022-10-18T02:09:39.681Z,10.60
2022-10-18T02:12:07.781Z,10.50
2022-10-18T02:14:34.735Z,10.40
2022-10-18T02:17:04.345Z,10.30
2022-10-18T02:19:33.209Z,10.30
2022-10-18T02:22:00.706Z,10.20
2022-10-18T02:24:31.819Z,10.20
2022-10-18T02:26:58.641Z,10.20
2022-10-18T02:29:25.545Z,10.20
2022-10-18T02:31:55.765Z,10.30
2022-10-18T02:34:23.911Z,10.40
2022-10-18T02:36:52.870Z,10.50
2022-10-18T02:39:24.967Z,10.60
2022-10-18T02:41:53.387Z,10.70
2022-10-18T02:44:20.287Z,10.70
2022-10-18T02:46:47.576Z,10.70
2022-10-18T02:49:14.477Z,10.60
2022-10-18T02:51:41.390Z,10.50
2022-10-18T02:54:08.721Z,10.50
2022-10-18T02:56:36.063Z,10.50
2022-10-18T02:59:05.192Z,10.40
2022-10-18T03:01:33.258Z,10.40
2022-10-18T03:04:00.322Z,10.30
2022-10-18T03:06:29.588Z,10.20
2022-10-18T03:08:56.468Z,10.30
2022-10-18T03:11:23.813Z,10.40
2022-10-18T03:13:51.227Z,10.40
2022-10-18T03:16:18.225Z,10.40
2022-10-18T03:18:45.055Z,10.50
2022-10-18T03:21:12.124Z,10.50
2022-10-18T03:23:40.158Z,10.50
2022-10-18T03:26:07.310Z,10.50
2022-10-18T03:28:34.295Z,10.60
2022-10-18T03:31:02.227Z,10.60
2022-10-18T03:33:29.623Z,10.70
2022-10-18T03:35:56.631Z,10.80
2022-10-18T03:38:23.548Z,10.80
2022-10-18T03:40:50.432Z,10.80
2022-10-18T03:43:17.363Z,10.60
2022-10-18T03:45:45.221Z,10.50
2022-10-18T03:48:12.178Z,10.60
2022-10-18T03:50:39.057Z,10.60
2022-10-18T03:53:06.080Z,10.70
2022-10-18T03:55:32.927Z,10.70
2022-10-18T03:57:59.794Z,10.70
2022-10-18T04:00:26.664Z,10.70
2022-10-18T04:02:55.892Z,10.70
2022-10-18T04:05:28.708Z,10.80
2022-10-18T04:07:56.032Z,10.70
2022-10-18T04:10:23.035Z,10.70
2022-10-18T04:12:49.926Z,10.80
2022-10-18T04:15:16.880Z,10.70
2022-10-18T04:17:43.850Z,10.70
2022-10-18T04:20:11.205Z,10.70
2022-10-18T04:22:38.211Z,10.70
2022-10-18T04:25:05.637Z,10.70
2022-10-18T04:27:32.791Z,10.70
2022-10-18T04:29:59.951Z,10.70
2022-10-18T04:32:28.920Z,10.70
2022-10-18T04:34:55.888Z,10.70
2022-10-18T04:37:22.975Z,10.70
2022-10-18T04:39:52.765Z,10.60
2022-10-18T04:42:21.236Z,10.50
2022-10-18T04:44:48.180Z,10.40
2022-10-18T04:47:15.382Z,10.30
2022-10-18T04:49:42.793Z,10.30
2022-10-18T04:52:10.016Z,10.20
2022-10-18T04:54:36.976Z,10.00
2022-10-18T04:57:04.054Z,9.90
2022-10-18T04:59:31.004Z,9.70
2022-10-18T05:01:57.964Z,9.60
2022-10-18T05:04:24.906Z,9.40
2022-10-18T05:06:51.831Z,9.40
2022-10-18T05:09:18.763Z,9.30
2022-10-18T05:11:45.639Z,9.30
2022-10-18T05:14:12.599Z,9.20
2022-10-18T05:16:39.456Z,9.10
2022-10-18T05:19:06.338Z,9.10
2022-10-18T05:21:33.652Z,9.00
2022-10-18T05:24:00.602Z,9.00
2022-10-18T05:26:27.825Z,9.00
2022-10-18T05:28:55.294Z,9.00
2022-10-18T05:31:22.222Z,9.00
2022-10-18T05:33:49.176Z,9.00
2022-10-18T05:36:16.171Z,9.00
2022-10-18T05:38:44.118Z,9.10
2022-10-18T05:41:11.729Z,9.00
2022-10-18T05:43:39.173Z,9.00
2022-10-18T05:46:11.898Z,9.00
2022-10-18T05:48:42.619Z,9.20
2022-10-18T05:51:09.563Z,9.40
2022-10-18T05:53:37.548Z,9.60
2022-10-18T05:56:05.683Z,9.80
2022-10-18T05:58:32.810Z,9.90
2022-10-18T06:01:01.020Z,10.10
2022-10-18T06:03:28.537Z,10.10
2022-10-18T06:06:02.201Z,10.10
2022-10-18T06:08:29.492Z,10.10
2022-10-18T06:10:56.672Z,10.00
2022-10-18T06:13:23.691Z,10.00
2022-10-18T06:15:50.722Z,9.90
2022-10-18T06:18:17.580Z,9.80
2022-10-18T06:20:44.437Z,9.90
2022-10-18T06:23:11.299Z,10.00
2022-10-18T06:25:38.282Z,10.10
2022-10-18T06:28:07.846Z,10.10
2022-10-18T06:30:37.228Z,10.20
2022-10-18T06:33:04.215Z,10.10
2022-10-18T06:35:31.112Z,10.20
2022-10-18T06:37:57.979Z,10.20
2022-10-18T06:40:25.013Z,10.20
2022-10-18T06:43:00.225Z,10.20
2022-10-18T06:45:27.603Z,10.30
2022-10-18T06:47:54.521Z,10.30
2022-10-18T06:50:21.382Z,10.20
2022-10-18T06:52:49.632Z,10.20
2022-10-18T06:55:16.619Z,10.20
2022-10-18T06:57:43.541Z,10.20
2022-10-18T07:00:10.723Z,10.30
2022-10-18T07:02:41.319Z,10.30
2022-10-18T07:05:08.973Z,10.30
2022-10-18T07:07:36.182Z,10.20
2022-10-18T07:10:03.663Z,10.20
2022-10-18T07:12:31.293Z,10.20
2022-10-18T07:14:58.263Z,10.30
2022-10-18T07:17:25.228Z,10.30
2022-10-18T07:19:52.067Z,10.30
2022-10-18T07:22:18.957Z,10.40
2022-10-18T07:24:45.888Z,10.50
2022-10-18T07:27:12.788Z,10.60
2022-10-18T07:29:40.577Z,10.80
2022-10-18T07:32:07.753Z,11.00
2022-10-18T07:34:34.632Z,12.00
2022-10-18T07:37:02.010Z,13.20
2022-10-18T07:39:28.891Z,13.10
2022-10-18T07:41:55.710Z,12.90
2022-10-18T07:44:22.680Z,12.30
2022-10-18T07:46:49.528Z,12.30
2022-10-18T07:49:17.141Z,13.50
2022-10-18T07:51:44.348Z,14.50
2022-10-18T07:54:11.273Z,14.70
2022-10-18T07:56:38.206Z,15.90
2022-10-18T07:59:05.192Z,17.20
2022-10-18T08:01:32.186Z,19.00
2022-10-18T08:04:04.690Z,18.90
2022-10-18T08:06:34.425Z,17.20
2022-10-18T08:09:01.540Z,16.80
2022-10-18T08:11:28.593Z,17.50
2022-10-18T08:13:55.684Z,18.00
2022-10-18T08:16:26.747Z,17.70
2022-10-18T08:18:54.081Z,18.90
2022-10-18T08:21:21.532Z,21.50
2022-10-18T08:23:48.685Z,23.40
2022-10-18T08:26:17.132Z,24.10
2022-10-18T08:28:53.568Z,25.20
2022-10-18T08:31:25.682Z,24.90
2022-10-18T08:33:54.558Z,23.90
2022-10-18T08:36:21.417Z,23.40
2022-10-18T08:38:49.540Z,21.80
2022-10-18T08:41:35.228Z,21.20
2022-10-18T08:44:07.972Z,21.10
2022-10-18T08:46:35.958Z,20.00
2022-10-18T08:49:03.977Z,19.50
2022-10-18T08:51:39.015Z,18.70
2022-10-18T08:54:13.610Z,18.20
2022-10-18T08:56:45.587Z,17.90
2022-10-18T08:59:13.500Z,17.70
2022-10-18T09:01:49.569Z,17.50
2022-10-18T09:04:45.786Z,17.30
2022-10-18T09:07:15.729Z,17.20
2022-10-18T09:09:50.992Z,17.10
2022-10-18T09:12:31.457Z,16.90
2022-10-18T09:14:59.076Z,16.80
2022-10-18T09:17:32.142Z,17.00
2022-10-18T09:20:05.885Z,17.10
2022-10-18T09:22:52.125Z,17.20
2022-10-18T09:25:25.442Z,17.40
2022-10-18T09:27:52.481Z,17.50
2022-10-18T09:30:25.680Z,17.90
2022-10-18T09:33:01.840Z,18.20
2022-10-18T09:35:31.811Z,18.60
2022-10-18T09:38:02.397Z,18.60
2022-10-18T09:40:31.136Z,18.40
2022-10-18T09:43:01.140Z,18.30
2022-10-18T09:45:33.021Z,18.30
2022-10-18T09:48:05.775Z,18.40
2022-10-18T09:50:36.737Z,18.40
2022-10-18T09:53:22.047Z,18.30
2022-10-18T09:56:09.198Z,18.40
2022-10-18T09:58:49.372Z,18.10
2022-10-18T10:01:18.520Z,18.20
2022-10-18T10:03:45.457Z,18.10
2022-10-18T10:06:12.395Z,18.10
2022-10-18T10:08:43.315Z,18.10
2022-10-18T10:11:29.048Z,18.10
2022-10-18T10:14:22.073Z,18.10
2022-10-18T10:16:51.295Z,18.10
2022-10-18T10:19:23.581Z,18.10
2022-10-18T10:21:51.694Z,18.10
2022-10-18T10:24:37.191Z,18.20
2022-10-18T10:27:14.573Z,18.10
2022-10-18T10:29:47.676Z,18.10
2022-10-18T10:32:15.737Z,18.20
2022-10-18T10:34:44.796Z,18.20
2022-10-18T10:37:41.591Z,18.10
2022-10-18T10:40:19.893Z,18.10
2022-10-18T10:42:54.547Z,18.40
2022-10-18T10:45:38.655Z,18.50
2022-10-18T10:48:14.496Z,18.50
2022-10-18T10:51:02.144Z,18.40
2022-10-18T10:53:29.574Z,18.40
2022-10-18T10:55:57.493Z,18.50
2022-10-18T10:58:25.587Z,18.70
2022-10-18T11:00:52.593Z,18.80
2022-10-18T11:03:40.866Z,18.90
2022-10-18T11:06:21.055Z,18.80
2022-10-18T11:08:51.767Z,18.90
2022-10-18T11:11:28.641Z,18.80
2022-10-18T11:16:53.900Z,18.90
2022-10-18T11:19:28.421Z,18.80
2022-10-18T11:21:56.986Z,18.90
2022-10-18T11:24:24.125Z,19.10
2022-10-18T11:26:53.754Z,19.20
2022-10-18T11:29:24.023Z,19.30
2022-10-18T11:32:18.979Z,19.30
2022-10-18T11:34:55.105Z,19.40
2022-10-18T11:37:46.987Z,19.50
2022-10-18T11:40:29.200Z,19.40
2022-10-18T11:43:10.369Z,19.50
2022-10-18T11:45:46.614Z,19.70
2022-10-18T11:48:19.625Z,19.50
2022-10-18T11:51:01.879Z,19.70
2022-10-18T11:53:35.046Z,19.70
2022-10-18T11:56:16.126Z,19.80
2022-10-18T11:58:50.252Z,19.80
2022-10-18T12:01:32.664Z,19.80
2022-10-18T12:03:59.703Z,19.90
2022-10-18T12:06:30.842Z,20.10
2022-10-18T12:09:00.278Z,20.10
2022-10-18T12:11:30.920Z,20.30
2022-10-18T12:14:00.581Z,20.30
2022-10-18T12:16:49.884Z,20.20
2022-10-18T12:19:26.744Z,20.20
2022-10-18T12:21:56.534Z,20.00
2022-10-18T12:24:25.744Z,19.80
2022-10-18T12:26:57.279Z,19.70
2022-10-18T12:29:24.202Z,19.50
2022-10-18T12:31:53.251Z,19.30
2022-10-18T12:34:23.576Z,19.50
2022-10-18T12:36:50.489Z,19.60
2022-10-18T12:39:43.635Z,19.40
2022-10-18T12:42:20.550Z,19.30
2022-10-18T12:44:48.029Z,19.10
2022-10-18T12:47:22.623Z,19.00
2022-10-18T12:49:57.107Z,19.00
2022-10-18T12:52:25.353Z,18.80
2022-10-18T12:55:15.244Z,18.80
2022-10-18T12:57:53.935Z,18.70
2022-10-18T13:00:47.956Z,18.60
2022-10-18T13:03:20.850Z,18.60
2022-10-18T13:05:53.518Z,18.60
2022-10-18T13:08:27.353Z,18.60
2022-10-18T13:11:12.536Z,18.60
2022-10-18T13:13:45.309Z,18.60
2022-10-18T13:16:12.347Z,18.60
2022-10-18T13:18:57.939Z,18.60
2022-10-18T13:21:27.731Z,18.60
2022-10-18T13:23:57.779Z,18.60
2022-10-18T13:26:32.134Z,18.60
2022-10-18T13:29:14.859Z,18.60
2022-10-18T13:31:44.630Z,18.50
2022-10-18T13:34:17.735Z,18.50
2022-10-18T13:36:44.727Z,18.40
2022-10-18T13:39:25.279Z,18.30
2022-10-18T13:41:56.515Z,18.10
2022-10-18T13:44:33.404Z,17.90
2022-10-18T13:47:00.287Z,17.80
2022-10-18T13:49:40.020Z,17.70
2022-10-18T13:52:16.036Z,17.50
2022-10-18T13:54:48.954Z,17.40
2022-10-18T13:57:34.703Z,17.30
2022-10-18T14:00:20.488Z,17.30
2022-10-18T14:03:10.192Z,17.30
2022-10-18T14:05:53.661Z,17.20
2022-10-18T14:08:23.730Z,17.20
2022-10-18T14:11:01.930Z,17.10
2022-10-18T14:14:02.084Z,16.90
2022-10-18T14:16:53.098Z,16.90
2022-10-18T14:19:29.384Z,16.80
2022-10-18T14:22:22.696Z,16.90
2022-10-18T14:24:59.120Z,17.00
2022-10-18T14:27:27.259Z,17.10
2022-10-18T14:30:09.446Z,17.20
2022-10-18T14:32:36.578Z,17.30
2022-10-18T14:37:51.846Z,17.20
2022-10-18T14:40:29.035Z,17.20
2022-10-18T14:42:55.855Z,17.00
2022-10-18T14:45:24.131Z,16.80
2022-10-18T14:47:51.039Z,16.70
2022-10-18T14:50:30.408Z,16.50
2022-10-18T14:52:57.934Z,16.30
2022-10-18T14:55:27.800Z,16.20
2022-10-18T14:57:55.076Z,16.00
2022-10-18T15:00:25.893Z,15.80
2022-10-18T15:02:53.247Z,15.80
2022-10-18T15:05:21.687Z,15.70
2022-10-18T15:07:49.041Z,15.60
2022-10-18T15:10:17.450Z,15.50
2022-10-18T15:13:08.139Z,15.40
2022-10-18T15:15:32.875Z,15.30
2022-10-18T15:18:00.002Z,15.20
2022-10-18T15:20:29.039Z,15.10
2022-10-18T15:23:15.942Z,15.10
2022-10-18T15:25:42.916Z,15.10
2022-10-18T15:28:21.026Z,15.00
2022-10-18T15:30:48.052Z,15.00
2022-10-18T15:33:23.376Z,15.00
2022-10-18T15:35:51.623Z,15.00
2022-10-18T15:38:21.626Z,15.00
2022-10-18T15:40:48.602Z,15.00
2022-10-18T15:43:27.634Z,14.90
2022-10-18T15:46:01.864Z,14.90
2022-10-18T15:48:35.316Z,14.90
2022-10-18T15:51:22.488Z,14.80
2022-10-18T15:53:49.416Z,14.70
2022-10-18T15:56:25.384Z,14.60
2022-10-18T15:58:52.482Z,14.60
2022-10-18T16:01:33.547Z,14.60
2022-10-18T16:04:01.076Z,14.60
2022-10-18T16:06:28.093Z,14.60
2022-10-18T16:08:55.041Z,14.60
2022-10-18T16:11:23.162Z,14.50
2022-10-18T16:13:51.048Z,14.40
2022-10-18T16:16:19.068Z,14.40
2022-10-18T16:18:47.084Z,14.30
2022-10-18T16:21:21.394Z,14.30
2022-10-18T16:23:49.596Z,14.20
2022-10-18T16:26:17.284Z,14.20
2022-10-18T16:28:44.686Z,14.20
2022-10-18T16:31:16.664Z,14.20
2022-10-18T16:33:43.908Z,14.20
2022-10-18T16:36:15.016Z,14.20
2022-10-18T16:38:41.942Z,14.10
2022-10-18T16:41:09.341Z,14.10
2022-10-18T16:43:36.731Z,14.00
2022-10-18T16:46:04.410Z,14.00
2022-10-18T16:48:31.317Z,13.90
2022-10-18T16:50:58.817Z,13.90
2022-10-18T16:53:26.394Z,13.90
2022-10-18T16:55:55.147Z,13.90
2022-10-18T17:00:51.073Z,13.90
2022-10-18T17:03:18.357Z,13.80
2022-10-18T17:05:45.421Z,13.80
2022-10-18T17:08:19.739Z,13.80
2022-10-18T17:10:53.097Z,13.70
2022-10-18T17:13:20.114Z,13.70
2022-10-18T17:15:47.425Z,13.70
2022-10-18T17:18:19.143Z,13.60
2022-10-18T17:20:46.133Z,13.60
2022-10-18T17:23:13.014Z,13.50
2022-10-18T17:25:51.519Z,13.40
2022-10-18T17:28:29.095Z,13.30
2022-10-18T17:30:56.201Z,13.30
2022-10-18T17:33:23.167Z,13.30
2022-10-18T17:35:50.047Z,13.20
2022-10-18T17:38:16.944Z,13.20
2022-10-18T17:40:43.815Z,13.20
2022-10-18T17:43:10.961Z,13.30
2022-10-18T17:45:38.074Z,13.30
2022-10-18T17:48:05.327Z,13.30
2022-10-18T17:50:32.191Z,13.30
2022-10-18T17:52:59.157Z,13.30
2022-10-18T17:55:26.147Z,13.30
2022-10-18T17:57:53.178Z,13.30
2022-10-18T18:00:20.165Z,13.30
2022-10-18T18:02:47.224Z,13.30
2022-10-18T18:05:14.135Z,13.30
2022-10-18T18:07:41.187Z,13.30
2022-10-18T18:10:08.599Z,13.30
2022-10-18T18:12:35.805Z,13.30
2022-10-18T18:15:02.911Z,13.30
2022-10-18T18:17:34.391Z,13.30
2022-10-18T18:20:13.035Z,13.20
2022-10-18T18:22:42.657Z,13.10
2022-10-18T18:25:09.997Z,13.20
2022-10-18T18:27:37.673Z,13.10
2022-10-18T18:30:05.723Z,13.10
2022-10-18T18:32:34.366Z,13.10
2022-10-18T18:35:01.831Z,13.10
2022-10-18T18:37:28.881Z,13.10
2022-10-18T18:39:55.866Z,13.10
2022-10-18T18:42:22.820Z,13.10
2022-10-18T18:44:50.170Z,13.10
2022-10-18T18:49:45.154Z,13.10
2022-10-18T18:52:12.015Z,13.10
2022-10-18T18:54:38.913Z,13.10
2022-10-18T18:57:06.609Z,13.10
2022-10-18T18:59:33.462Z,13.00
2022-10-18T19:02:00.332Z,13.00
2022-10-18T19:04:29.090Z,13.00
2022-10-18T19:06:55.956Z,13.00
2022-10-18T19:09:23.210Z,13.00
2022-10-18T19:11:51.026Z,13.10
2022-10-18T19:14:18.005Z,13.10
2022-10-18T19:16:48.153Z,13.10
2022-10-18T19:19:16.300Z,13.10
2022-10-18T19:21:51.895Z,13.00
2022-10-18T19:24:19.571Z,13.10
2022-10-18T19:26:47.304Z,13.10
2022-10-18T19:29:19.272Z,13.00
2022-10-18T19:31:46.393Z,12.80
2022-10-18T19:34:14.260Z,12.50
2022-10-18T19:36:41.774Z,12.20
2022-10-18T19:39:11.943Z,12.00
2022-10-18T19:41:38.815Z,11.90
2022-10-18T19:44:05.885Z,11.80
2022-10-18T19:46:32.766Z,11.80
2022-10-18T19:48:59.628Z,11.80
2022-10-18T19:51:28.342Z,11.90
2022-10-18T19:53:56.091Z,12.00
2022-10-18T19:56:24.372Z,12.10
2022-10-18T19:58:51.287Z,12.10
2022-10-18T20:01:18.883Z,12.20
2022-10-18T20:03:46.744Z,12.20
2022-10-18T20:06:13.747Z,12.20
2022-10-18T20:11:10.651Z,12.10
2022-10-18T20:13:37.608Z,12.10
2022-10-18T20:16:05.340Z,12.10
2022-10-18T20:18:32.301Z,12.10
2022-10-18T20:20:59.328Z,12.10
2022-10-18T20:23:26.280Z,12.10
2022-10-18T20:25:56.970Z,12.10
2022-10-18T20:28:25.167Z,12.10
2022-10-18T20:31:02.420Z,12.10
2022-10-18T20:33:29.386Z,12.10
2022-10-18T20:35:56.361Z,12.10
2022-10-18T20:38:23.287Z,12.10
2022-10-18T20:40:50.189Z,12.00
2022-10-18T20:43:17.112Z,12.10
2022-10-18T20:45:44.119Z,12.00
2022-10-18T20:48:10.984Z,12.00
2022-10-18T20:50:40.699Z,12.00
2022-10-18T20:53:09.135Z,11.90
2022-10-18T20:55:38.842Z,11.90
2022-10-18T20:58:06.835Z,11.80
2022-10-18T21:00:34.333Z,11.80
2022-10-18T21:03:01.347Z,11.70
2022-10-18T21:05:31.894Z,11.70
2022-10-18T21:07:58.934Z,11.70
2022-10-18T21:10:26.283Z,11.60
2022-10-18T21:12:53.317Z,11.60
2022-10-18T21:15:20.405Z,11.60
2022-10-18T21:17:51.667Z,11.60
2022-10-18T21:20:18.637Z,11.60
2022-10-18T21:22:45.782Z,11.60
2022-10-18T21:25:12.634Z,11.50
2022-10-18T21:27:39.752Z,11.40
2022-10-18T21:30:06.911Z,11.40
2022-10-18T21:32:34.278Z,11.30
2022-10-18T21:35:01.469Z,11.30
2022-10-18T21:37:28.413Z,11.30
2022-10-18T21:39:55.405Z,11.30
2022-10-18T21:42:22.290Z,11.30
2022-10-18T21:44:49.554Z,11.30
2022-10-18T21:47:16.402Z,11.30
2022-10-18T21:49:43.260Z,11.30
2022-10-18T21:52:10.194Z,11.20
2022-10-18T21:54:37.346Z,11.30
2022-10-18T21:57:04.266Z,11.20
2022-10-18T21:59:31.199Z,11.20
2022-10-18T22:01:58.351Z,11.20
2022-10-18T22:04:25.419Z,11.20
2022-10-18T22:06:52.559Z,11.20
2022-10-18T22:09:21.268Z,11.20
2022-10-18T22:11:49.749Z,11.10
2022-10-18T22:14:16.700Z,11.10
2022-10-18T22:16:43.656Z,11.10
2022-10-18T22:19:10.619Z,11.10
2022-10-18T22:21:37.458Z,11.10
2022-10-18T22:24:05.532Z,11.10
2022-10-18T22:26:33.886Z,11.10
2022-10-18T22:29:05.212Z,11.10
2022-10-18T22:31:33.607Z,11.10
2022-10-18T22:34:01.841Z,11.00
2022-10-18T22:36:29.177Z,11.00
2022-10-18T22:38:56.217Z,10.90
2022-10-18T22:41:23.141Z,10.60
2022-10-18T22:43:50.981Z,10.40
2022-10-18T22:46:18.114Z,10.40
2022-10-18T22:48:45.269Z,10.20
2022-10-18T22:51:12.697Z,10.20
2022-10-18T22:53:40.248Z,10.10
2022-10-18T22:56:08.043Z,10.00
2022-10-18T22:58:34.976Z,10.00
2022-10-18T23:01:12.640Z,10.10
2022-10-18T23:03:39.948Z,10.20
2022-10-18T23:06:17.835Z,10.30
2022-10-18T23:08:44.776Z,10.40
2022-10-18T23:11:11.631Z,10.40
2022-10-18T23:13:39.613Z,10.40
2022-10-18T23:16:06.943Z,10.50
2022-10-18T23:18:34.220Z,10.50
2022-10-18T23:21:02.224Z,10.50
2022-10-18T23:23:29.760Z,10.50
2022-10-18T23:25:56.684Z,10.40
2022-10-18T23:28:23.900Z,10.50
2022-10-18T23:30:50.786Z,10.40
2022-10-18T23:33:17.664Z,10.40
2022-10-18T23:35:44.512Z,10.40
2022-10-18T23:38:11.548Z,10.40
2022-10-18T23:40:38.397Z,10.40
2022-10-18T23:43:05.277Z,10.40
2022-10-18T23:45:32.132Z,10.40
2022-10-18T23:47:59.017Z,10.40
2022-10-18T23:50:25.981Z,10.40
2022-10-18T23:52:52.840Z,10.40
2022-10-18T23:55:19.742Z,10.40
2022-10-18T23:57:46.601Z,10.40
